createdAt,value
2022-11-29T00:01:35.851Z,1.11
2022-11-29T00:04:03.888Z,1.13
2022-11-29T00:06:33.643Z,1.08
2022-11-29T00:09:06.289Z,1.14
2022-11-29T00:11:55.029Z,1.04
2022-11-29T00:14:23.082Z,1.14
2022-11-29T00:16:52.494Z,1.02
2022-11-29T00:19:19.596Z,1.07
2022-11-29T00:21:46.648Z,1.02
2022-11-29T00:24:14.270Z,1.03
2022-11-29T00:26:41.358Z,1.01
2022-11-29T00:29:08.441Z,1.05
2022-11-29T00:31:35.790Z,1.10
2022-11-29T00:34:04.977Z,1.15
2022-11-29T00:36:32.052Z,1.21
2022-11-29T00:38:59.358Z,1.20
2022-11-29T00:41:27.081Z,1.21
2022-11-29T00:43:54.168Z,1.07
2022-11-29T00:46:21.958Z,1.00
2022-11-29T00:48:48.985Z,1.05
2022-11-29T00:51:15.969Z,0.92
2022-11-29T00:53:43.269Z,0.98
2022-11-29T00:56:10.470Z,0.96
2022-11-29T00:58:37.520Z,1.07
2022-11-29T01:01:05.533Z,0.95
2022-11-29T01:03:32.990Z,0.92
2022-11-29T01:06:02.092Z,0.91
2022-11-29T01:08:29.390Z,0.86
2022-11-29T01:11:05.818Z,0.89
2022-11-29T01:13:33.809Z,0.85
2022-11-29T01:16:01.090Z,0.81
2022-11-29T01:18:30.413Z,0.89
2022-11-29T01:21:17.934Z,0.94
2022-11-29T01:23:45.906Z,0.90
2022-11-29T01:26:19.129Z,0.92
2022-11-29T01:28:47.994Z,0.92
2022-11-29T01:31:19.411Z,1.02
2022-11-29T01:33:46.615Z,1.00
2022-11-29T01:36:14.181Z,0.88
2022-11-29T01:38:42.524Z,0.91
2022-11-29T01:41:13.725Z,0.85
2022-11-29T01:44:07.046Z,0.88
2022-11-29T01:46:43.303Z,1.01
2022-11-29T01:49:17.525Z,1.08
2022-11-29T01:51:53.125Z,1.03
2022-11-29T01:54:20.700Z,1.05
2022-11-29T01:56:50.339Z,1.02
2022-11-29T01:59:21.998Z,0.99
2022-11-29T02:01:49.392Z,1.06
2022-11-29T02:04:18.632Z,0.91
2022-11-29T02:06:46.604Z,1.00
2022-11-29T02:09:22.769Z,1.05
2022-11-29T02:11:52.801Z,1.08
2022-11-29T02:14:49.605Z,1.09
2022-11-29T02:17:48.130Z,1.07
2022-11-29T02:20:45.579Z,1.22
2022-11-29T02:23:18.548Z,1.18
2022-11-29T02:26:11.137Z,1.10
2022-11-29T02:29:16.152Z,1.15
2022-11-29T02:32:20.798Z,1.09
2022-11-29T02:35:12.876Z,1.05
2022-11-29T02:37:45.650Z,1.04
2022-11-29T02:41:01.243Z,1.07
2022-11-29T02:43:46.253Z,1.07
2022-11-29T02:46:22.744Z,1.00
2022-11-29T02:49:08.850Z,0.91
2022-11-29T02:51:42.107Z,0.96
2022-11-29T02:54:26.514Z,0.90
2022-11-29T02:56:59.178Z,0.89
2022-11-29T02:59:34.253Z,0.93
2022-11-29T03:02:20.317Z,0.99
2022-11-29T03:04:58.404Z,1.05
2022-11-29T03:07:40.271Z,0.96
2022-11-29T03:10:29.158Z,1.06
2022-11-29T03:12:58.353Z,0.95
2022-11-29T03:15:29.836Z,0.91
2022-11-29T03:18:13.812Z,0.92
2022-11-29T03:21:05.560Z,0.78
2022-11-29T03:23:55.098Z,0.82
2022-11-29T03:26:52.162Z,0.75
2022-11-29T03:29:42.556Z,0.89
2022-11-29T03:32:36.722Z,0.88
2022-11-29T03:35:13.399Z,0.90
2022-11-29T03:38:02.728Z,0.92
2022-11-29T03:40:48.150Z,1.00
2022-11-29T03:43:38.897Z,1.04
2022-11-29T03:46:12.197Z,1.14
2022-11-29T03:48:50.173Z,0.94
2022-11-29T03:51:44.045Z,0.94
2022-11-29T03:54:16.746Z,0.96
2022-11-29T03:56:44.532Z,0.89
2022-11-29T03:59:49.313Z,0.84
2022-11-29T04:02:16.587Z,0.96
2022-11-29T04:05:05.834Z,0.87
2022-11-29T04:08:11.626Z,0.77
2022-11-29T04:10:53.714Z,0.89
2022-11-29T04:13:47.688Z,0.87
2022-11-29T04:16:27.316Z,0.81
2022-11-29T04:19:00.142Z,0.72
2022-11-29T04:22:01.260Z,0.70
2022-11-29T04:24:50.080Z,0.72
2022-11-29T04:27:54.732Z,0.61
2022-11-29T04:30:56.825Z,0.60
2022-11-29T04:33:51.756Z,0.49
2022-11-29T04:36:37.964Z,0.55
2022-11-29T04:39:11.320Z,0.74
2022-11-29T04:42:06.654Z,0.71
2022-11-29T04:44:43.096Z,0.67
2022-11-29T04:47:36.644Z,0.69
2022-11-29T04:50:13.980Z,0.72
2022-11-29T04:52:56.355Z,0.83
2022-11-29T04:55:42.187Z,0.80
2022-11-29T04:58:24.527Z,0.76
2022-11-29T05:01:12.306Z,0.89
2022-11-29T05:03:49.341Z,0.85
2022-11-29T05:06:33.723Z,0.87
2022-11-29T05:09:24.444Z,0.95
2022-11-29T05:12:08.563Z,0.77
2022-11-29T05:15:04.867Z,1.13
2022-11-29T05:17:47.012Z,1.10
2022-11-29T05:20:28.526Z,0.83
2022-11-29T05:23:17.151Z,1.04
2022-11-29T05:25:58.082Z,1.11
2022-11-29T05:28:49.913Z,1.14
2022-11-29T05:31:47.062Z,1.11
2022-11-29T05:34:39.417Z,1.11
2022-11-29T05:37:27.078Z,1.13
2022-11-29T05:40:17.780Z,1.05
2022-11-29T05:43:46.627Z,0.95
2022-11-29T05:46:33.946Z,0.80
2022-11-29T05:49:08.755Z,0.80
2022-11-29T05:51:48.592Z,0.79
2022-11-29T05:54:28.047Z,0.78
2022-11-29T05:57:10.562Z,0.90
2022-11-29T05:59:39.009Z,0.80
2022-11-29T06:02:27.634Z,0.84
2022-11-29T06:05:03.669Z,0.82
2022-11-29T06:07:41.004Z,0.74
2022-11-29T06:10:13.157Z,0.63
2022-11-29T06:12:43.599Z,0.70
2022-11-29T06:15:32.514Z,0.70
2022-11-29T06:18:08.471Z,0.67
2022-11-29T06:20:57.281Z,0.66
2022-11-29T06:24:02.731Z,0.74
2022-11-29T06:27:11.736Z,0.59
2022-11-29T06:30:02.381Z,0.56
2022-11-29T06:32:32.951Z,0.49
2022-11-29T06:35:21.616Z,0.46
2022-11-29T06:37:52.334Z,0.45
2022-11-29T06:40:19.410Z,0.40
2022-11-29T06:42:46.468Z,0.37
2022-11-29T06:45:15.003Z,0.34
2022-11-29T06:47:52.970Z,0.33
2022-11-29T06:50:44.344Z,0.41
2022-11-29T06:53:28.516Z,0.46
2022-11-29T06:55:55.779Z,0.50
2022-11-29T06:58:36.367Z,0.48
2022-11-29T07:01:20.115Z,0.50
2022-11-29T07:04:24.471Z,0.63
2022-11-29T07:06:52.091Z,0.70
2022-11-29T07:09:22.831Z,0.77
2022-11-29T07:11:50.174Z,0.88
2022-11-29T07:14:17.831Z,0.86
2022-11-29T07:16:57.367Z,0.88
2022-11-29T07:19:33.987Z,0.93
2022-11-29T07:22:43.414Z,1.09
2022-11-29T07:25:35.070Z,1.14
2022-11-29T07:28:32.064Z,0.99
2022-11-29T07:31:05.114Z,0.91
2022-11-29T07:33:51.230Z,1.02
2022-11-29T07:36:27.959Z,1.09
2022-11-29T07:39:16.246Z,1.15
2022-11-29T07:41:55.740Z,1.19
2022-11-29T07:44:51.922Z,1.23
2022-11-29T07:47:19.224Z,1.25
2022-11-29T07:49:46.310Z,1.38
2022-11-29T07:52:16.194Z,1.27
2022-11-29T07:54:44.302Z,1.25
2022-11-29T07:57:11.482Z,1.17
2022-11-29T07:59:38.510Z,1.08
2022-11-29T08:02:11.498Z,1.12
2022-11-29T08:04:46.238Z,1.08
2022-11-29T08:07:13.377Z,1.03
2022-11-29T08:09:40.659Z,1.15
2022-11-29T08:12:07.970Z,1.14
2022-11-29T08:14:35.003Z,1.16
2022-11-29T08:17:02.390Z,1.29
2022-11-29T08:19:29.648Z,1.28
2022-11-29T08:21:56.696Z,1.47
2022-11-29T08:24:24.018Z,1.40
2022-11-29T08:26:51.108Z,1.42
2022-11-29T08:29:19.115Z,1.39
2022-11-29T08:31:46.597Z,1.39
2022-11-29T08:34:13.696Z,1.30
2022-11-29T08:36:40.700Z,1.30
2022-11-29T08:39:09.673Z,1.36
2022-11-29T08:41:37.190Z,1.41
2022-11-29T08:44:07.814Z,1.55
2022-11-29T08:46:53.979Z,1.59
2022-11-29T08:49:20.976Z,1.63
2022-11-29T08:51:48.360Z,1.71
2022-11-29T08:54:15.324Z,1.63
2022-11-29T08:59:29.548Z,1.92
2022-11-29T09:01:56.658Z,1.93
2022-11-29T09:04:23.710Z,2.03
2022-11-29T09:06:51.138Z,1.95
2022-11-29T09:09:18.164Z,1.92
2022-11-29T09:11:49.204Z,1.89
2022-11-29T09:14:17.765Z,1.91
2022-11-29T09:16:44.961Z,1.92
2022-11-29T09:19:14.407Z,1.89
2022-11-29T09:21:41.865Z,1.99
2022-11-29T09:24:10.198Z,2.03
2022-11-29T09:26:40.644Z,1.99
2022-11-29T09:29:08.180Z,2.06
2022-11-29T09:31:35.762Z,2.16
2022-11-29T09:34:02.858Z,2.22
2022-11-29T09:36:30.862Z,2.08
2022-11-29T09:38:59.371Z,1.96
2022-11-29T09:41:32.807Z,1.87
2022-11-29T09:44:18.656Z,1.66
2022-11-29T09:47:08.506Z,1.72
2022-11-29T09:50:13.439Z,1.73
2022-11-29T09:52:47.585Z,1.75
2022-11-29T09:55:33.077Z,1.90
2022-11-29T09:58:03.831Z,2.11
2022-11-29T10:00:35.619Z,2.23
2022-11-29T10:03:31.752Z,2.20
2022-11-29T10:06:08.492Z,2.40
2022-11-29T10:09:04.641Z,2.64
2022-11-29T10:12:10.469Z,2.78
2022-11-29T10:15:02.727Z,2.91
2022-11-29T10:17:34.083Z,2.96
2022-11-29T10:20:27.434Z,3.03
2022-11-29T10:23:06.866Z,2.84
2022-11-29T10:25:42.161Z,2.88
2022-11-29T10:28:14.616Z,2.81
2022-11-29T10:30:42.978Z,2.94
2022-11-29T10:33:21.099Z,2.84
2022-11-29T10:35:51.306Z,2.76
2022-11-29T10:38:33.740Z,2.62
2022-11-29T10:41:11.952Z,2.60
2022-11-29T10:43:39.223Z,2.46
2022-11-29T10:46:15.733Z,2.54
2022-11-29T10:48:42.882Z,2.72
2022-11-29T10:51:18.137Z,2.70
2022-11-29T10:53:46.681Z,2.90
2022-11-29T10:56:31.109Z,2.96
2022-11-29T10:59:05.197Z,3.10
2022-11-29T11:01:37.004Z,3.19
2022-11-29T11:04:07.374Z,3.31
2022-11-29T11:06:51.493Z,3.27
2022-11-29T11:09:21.221Z,3.20
2022-11-29T11:12:14.591Z,3.27
2022-11-29T11:14:43.246Z,3.35
2022-11-29T11:17:30.080Z,3.24
2022-11-29T11:20:04.523Z,3.33
2022-11-29T11:22:33.880Z,3.40
2022-11-29T11:25:06.287Z,3.37
2022-11-29T11:27:41.802Z,3.28
2022-11-29T11:30:22.436Z,3.24
2022-11-29T11:33:20.130Z,3.25
2022-11-29T11:36:05.781Z,3.20
2022-11-29T11:38:38.512Z,3.23
2022-11-29T11:41:05.836Z,3.02
2022-11-29T11:43:34.618Z,2.90
2022-11-29T11:46:02.104Z,3.10
2022-11-29T11:48:29.695Z,3.20
2022-11-29T11:50:59.433Z,3.21
2022-11-29T11:53:36.507Z,3.27
2022-11-29T11:56:08.818Z,3.41
2022-11-29T11:58:53.257Z,3.63
2022-11-29T12:01:44.422Z,3.60
2022-11-29T12:04:20.398Z,3.53
2022-11-29T12:06:47.417Z,3.47
2022-11-29T12:09:30.911Z,3.30
2022-11-29T12:12:03.759Z,3.45
2022-11-29T12:14:52.905Z,3.54
2022-11-29T12:17:34.908Z,3.62
2022-11-29T12:20:13.687Z,3.42
2022-11-29T12:22:55.678Z,3.53
2022-11-29T12:25:29.685Z,3.35
2022-11-29T12:27:56.919Z,3.39
2022-11-29T12:30:24.354Z,3.56
2022-11-29T12:32:51.261Z,3.71
2022-11-29T12:35:32.697Z,3.78
2022-11-29T12:38:18.497Z,3.86
2022-11-29T12:41:16.757Z,3.87
2022-11-29T12:43:49.770Z,3.55
2022-11-29T12:46:36.208Z,3.30
2022-11-29T12:49:21.972Z,3.40
2022-11-29T12:52:02.388Z,3.36
2022-11-29T12:54:35.634Z,3.45
2022-11-29T12:57:17.778Z,3.41
2022-11-29T13:00:09.646Z,3.53
2022-11-29T13:03:06.825Z,3.66
2022-11-29T13:06:03.690Z,3.49
2022-11-29T13:08:53.900Z,3.47
2022-11-29T13:11:29.164Z,3.61
2022-11-29T13:14:40.847Z,3.56
2022-11-29T13:17:02.307Z,3.36
2022-11-29T13:19:39.198Z,3.22
2022-11-29T13:22:06.810Z,3.23
2022-11-29T13:24:42.752Z,3.15
2022-11-29T13:27:34.868Z,3.26
2022-11-29T13:30:02.591Z,3.19
2022-11-29T13:32:34.221Z,3.28
2022-11-29T13:35:32.142Z,3.33
2022-11-29T13:38:03.262Z,3.34
2022-11-29T13:40:44.885Z,3.30
2022-11-29T13:43:23.388Z,3.19
2022-11-29T13:46:25.640Z,3.14
2022-11-29T13:48:54.631Z,3.23
2022-11-29T13:51:30.352Z,3.12
2022-11-29T13:54:01.728Z,3.08
2022-11-29T13:56:47.645Z,3.19
2022-11-29T13:59:32.493Z,3.07
2022-11-29T14:01:59.844Z,3.09
2022-11-29T14:04:32.368Z,3.18
2022-11-29T14:07:06.361Z,3.05
2022-11-29T14:09:53.151Z,2.96
2022-11-29T14:12:39.581Z,2.93
2022-11-29T14:15:25.043Z,3.02
2022-11-29T14:18:01.587Z,2.86
2022-11-29T14:20:44.102Z,2.80
2022-11-29T14:23:16.063Z,2.81
2022-11-29T14:25:58.660Z,2.82
2022-11-29T14:28:43.873Z,2.82
2022-11-29T14:31:11.247Z,2.84
2022-11-29T14:33:47.078Z,2.74
2022-11-29T14:36:24.271Z,2.75
2022-11-29T14:38:58.840Z,2.80
2022-11-29T14:41:33.798Z,2.83
2022-11-29T14:44:30.412Z,2.74
2022-11-29T14:47:24.729Z,2.66
2022-11-29T14:49:54.112Z,2.59
2022-11-29T14:52:28.247Z,2.62
2022-11-29T14:55:00.983Z,2.64
2022-11-29T14:57:48.402Z,2.72
2022-11-29T15:00:29.270Z,2.67
2022-11-29T15:03:16.986Z,2.59
2022-11-29T15:05:51.734Z,2.46
2022-11-29T15:08:41.555Z,2.42
2022-11-29T15:11:08.513Z,2.34
2022-11-29T15:13:38.875Z,2.42
2022-11-29T15:16:31.795Z,2.38
2022-11-29T15:19:16.507Z,2.30
2022-11-29T15:21:55.003Z,2.29
2022-11-29T15:24:26.767Z,2.33
2022-11-29T15:26:59.895Z,2.34
2022-11-29T15:29:28.830Z,2.30
2022-11-29T15:31:58.973Z,2.32
2022-11-29T15:34:36.890Z,2.31
2022-11-29T15:37:04.432Z,2.31
2022-11-29T15:39:36.841Z,2.28
2022-11-29T15:42:11.433Z,2.35
2022-11-29T15:44:45.741Z,2.27
2022-11-29T15:47:25.163Z,2.23
2022-11-29T15:49:54.167Z,2.24
2022-11-29T15:52:31.780Z,2.30
2022-11-29T15:55:05.836Z,2.29
2022-11-29T15:57:38.667Z,2.39
2022-11-29T16:00:11.449Z,2.32
2022-11-29T16:02:46.314Z,2.34
2022-11-29T16:05:26.328Z,2.42
2022-11-29T16:07:58.382Z,2.45
2022-11-29T16:10:35.956Z,2.41
2022-11-29T16:13:43.105Z,2.47
2022-11-29T16:16:20.473Z,2.59
2022-11-29T16:18:49.580Z,2.46
2022-11-29T16:21:26.032Z,2.46
2022-11-29T16:23:54.092Z,2.40
2022-11-29T16:26:30.273Z,2.33
2022-11-29T16:28:58.060Z,2.37
2022-11-29T16:31:36.608Z,2.48
2022-11-29T16:34:28.748Z,2.48
2022-11-29T16:37:31.919Z,2.69
2022-11-29T16:40:01.497Z,2.70
2022-11-29T16:42:30.864Z,2.65
2022-11-29T16:45:27.171Z,2.59
2022-11-29T16:47:59.705Z,2.63
2022-11-29T16:50:31.816Z,2.58
2022-11-29T16:53:34.057Z,2.54
2022-11-29T16:56:01.172Z,2.46
2022-11-29T16:58:28.618Z,2.39
2022-11-29T17:00:55.708Z,2.35
2022-11-29T17:03:22.738Z,2.33
2022-11-29T17:05:50.358Z,2.29
2022-11-29T17:08:17.450Z,2.30
2022-11-29T17:10:44.437Z,2.29
2022-11-29T17:13:11.859Z,2.28
2022-11-29T17:15:39.039Z,2.31
2022-11-29T17:18:06.061Z,2.29
2022-11-29T17:20:33.894Z,2.30
2022-11-29T17:23:00.907Z,2.34
2022-11-29T17:25:27.933Z,2.31
2022-11-29T17:27:55.881Z,2.31
2022-11-29T17:30:22.931Z,2.26
2022-11-29T17:32:49.939Z,2.30
2022-11-29T17:35:17.233Z,2.26
2022-11-29T17:37:44.253Z,2.22
2022-11-29T17:40:13.512Z,2.29
2022-11-29T17:42:41.497Z,2.26
2022-11-29T17:45:09.211Z,2.20
2022-11-29T17:47:36.192Z,2.18
2022-11-29T17:50:03.839Z,2.18
2022-11-29T17:52:30.830Z,2.21
2022-11-29T17:54:57.897Z,2.20
2022-11-29T17:57:25.215Z,2.23
2022-11-29T17:59:52.246Z,2.30
2022-11-29T18:02:19.347Z,2.37
2022-11-29T18:04:46.660Z,2.31
2022-11-29T18:07:15.826Z,2.35
2022-11-29T18:09:44.198Z,2.27
2022-11-29T18:12:11.781Z,2.25
2022-11-29T18:14:39.065Z,2.40
2022-11-29T18:17:06.096Z,2.38
2022-11-29T18:19:33.762Z,2.32
2022-11-29T18:22:02.649Z,2.38
2022-11-29T18:24:30.658Z,2.37
2022-11-29T18:26:57.969Z,2.42
2022-11-29T18:29:25.147Z,2.34
2022-11-29T18:31:52.303Z,2.35
2022-11-29T18:34:19.658Z,2.43
2022-11-29T18:36:48.499Z,2.47
2022-11-29T18:39:17.546Z,2.45
2022-11-29T18:41:47.573Z,2.46
2022-11-29T18:44:17.089Z,2.44
2022-11-29T18:46:45.608Z,2.33
2022-11-29T18:49:15.459Z,2.52
2022-11-29T18:51:45.388Z,2.58
2022-11-29T18:54:14.960Z,2.50
2022-11-29T18:56:43.367Z,2.48
2022-11-29T18:59:12.063Z,2.50
2022-11-29T19:01:42.426Z,2.55
2022-11-29T19:04:12.790Z,2.40
2022-11-29T19:06:41.072Z,2.43
2022-11-29T19:09:12.905Z,2.41
2022-11-29T19:11:40.788Z,2.47
2022-11-29T19:14:13.302Z,2.52
2022-11-29T19:16:43.435Z,2.48
2022-11-29T19:19:11.127Z,2.43
2022-11-29T19:21:39.919Z,2.52
2022-11-29T19:24:13.928Z,2.54
2022-11-29T19:26:44.602Z,2.55
2022-11-29T19:29:15.525Z,2.59
2022-11-29T19:31:43.046Z,2.63
2022-11-29T19:34:10.493Z,2.76
2022-11-29T19:36:43.130Z,2.70
2022-11-29T19:39:16.254Z,2.68
2022-11-29T19:41:46.016Z,2.63
2022-11-29T19:44:13.553Z,2.64
2022-11-29T19:46:45.923Z,2.76
2022-11-29T19:49:13.542Z,2.72
2022-11-29T19:51:40.565Z,2.66
2022-11-29T19:54:09.670Z,2.58
2022-11-29T19:56:38.097Z,2.56
2022-11-29T19:59:06.582Z,2.55
2022-11-29T20:01:40.723Z,2.64
2022-11-29T20:04:11.700Z,2.64
2022-11-29T20:06:38.783Z,2.64
2022-11-29T20:09:06.485Z,2.63
2022-11-29T20:11:36.782Z,2.56
2022-11-29T20:14:05.201Z,2.55
2022-11-29T20:16:33.582Z,2.49
2022-11-29T20:19:01.716Z,2.45
2022-11-29T20:21:31.406Z,2.44
2022-11-29T20:24:04.240Z,2.41
2022-11-29T20:26:33.799Z,2.43
2022-11-29T20:29:02.207Z,2.49
2022-11-29T20:31:29.732Z,2.47
2022-11-29T20:33:57.556Z,2.46
2022-11-29T20:36:36.424Z,2.50
2022-11-29T20:39:28.951Z,2.54
2022-11-29T20:41:58.673Z,2.55
2022-11-29T20:44:50.760Z,2.62
2022-11-29T20:47:20.937Z,2.64
2022-11-29T20:49:48.752Z,2.64
2022-11-29T20:52:33.781Z,2.50
2022-11-29T20:55:01.111Z,2.50
2022-11-29T20:57:28.625Z,2.59
2022-11-29T20:59:55.659Z,2.67
2022-11-29T21:02:23.525Z,2.73
2022-11-29T21:04:51.491Z,2.79
2022-11-29T21:07:18.663Z,2.78
2022-11-29T21:09:46.135Z,2.86
2022-11-29T21:12:13.667Z,2.84
2022-11-29T21:14:40.923Z,2.88
2022-11-29T21:17:09.003Z,3.00
2022-11-29T21:19:36.552Z,2.84
2022-11-29T21:22:03.708Z,2.95
2022-11-29T21:24:46.524Z,2.99
2022-11-29T21:27:17.584Z,3.04
2022-11-29T21:29:45.330Z,3.03
2022-11-29T21:32:24.492Z,2.96
2022-11-29T21:34:52.219Z,2.97
2022-11-29T21:37:22.230Z,2.98
2022-11-29T21:39:51.429Z,2.96
2022-11-29T21:42:19.107Z,2.97
2022-11-29T21:44:46.911Z,2.95
2022-11-29T21:47:14.548Z,3.01
2022-11-29T21:49:41.812Z,3.13
2022-11-29T21:52:09.194Z,3.11
2022-11-29T21:54:36.270Z,3.11
2022-11-29T21:57:04.698Z,3.09
2022-11-29T21:59:31.744Z,3.20
2022-11-29T22:01:58.879Z,3.12
2022-11-29T22:04:26.415Z,3.24
2022-11-29T22:06:53.563Z,3.18
2022-11-29T22:09:20.622Z,3.20
2022-11-29T22:11:48.009Z,3.12
2022-11-29T22:14:19.349Z,3.17
2022-11-29T22:16:52.604Z,3.22
2022-11-29T22:19:28.920Z,3.20
2022-11-29T22:22:01.231Z,3.22
2022-11-29T22:24:31.307Z,3.26
2022-11-29T22:26:58.378Z,3.20
2022-11-29T22:29:25.962Z,3.26
2022-11-29T22:31:55.593Z,3.31
2022-11-29T22:34:25.224Z,3.26
2022-11-29T22:36:52.595Z,3.25
2022-11-29T22:39:19.932Z,3.21
2022-11-29T22:41:53.564Z,3.21
2022-11-29T22:44:22.934Z,3.25
2022-11-29T22:46:50.393Z,3.23
2022-11-29T22:49:17.533Z,3.23
2022-11-29T22:51:44.918Z,3.30
2022-11-29T22:54:15.291Z,3.25
2022-11-29T22:56:43.601Z,3.26
2022-11-29T22:59:11.398Z,3.15
2022-11-29T23:01:40.343Z,3.13
2022-11-29T23:04:11.434Z,3.09
2022-11-29T23:06:45.823Z,3.13
2022-11-29T23:09:21.062Z,3.18
2022-11-29T23:11:53.831Z,3.14
2022-11-29T23:14:22.114Z,3.12
2022-11-29T23:16:49.708Z,3.15
2022-11-29T23:19:17.290Z,3.17
2022-11-29T23:21:45.842Z,3.31
2022-11-29T23:24:15.090Z,3.31
2022-11-29T23:26:45.951Z,3.39
2022-11-29T23:29:15.765Z,3.32
2022-11-29T23:31:43.093Z,3.34
2022-11-29T23:34:10.525Z,3.36
2022-11-29T23:36:39.735Z,3.37
2022-11-29T23:39:07.174Z,3.42
2022-11-29T23:41:35.765Z,3.28
2022-11-29T23:44:04.903Z,3.33
2022-11-29T23:46:32.506Z,3.37
2022-11-29T23:48:59.499Z,3.39
2022-11-29T23:51:26.908Z,3.48
2022-11-29T23:53:54.404Z,3.49
2022-11-29T23:56:22.405Z,3.47
2022-11-29T23:58:49.827Z,3.47
